Terminal Aerodrome Forecast
Issued by NWS

Current Version | Previous Version | Text Only | Print | Product List | Glossary Off
Versions: 1 2 3 4 5 6 7 8 9 10 11 12 13 14 15 16 17 18 19 20 21 22 23 24 25 26 27 28 29 30 31 32

000
FTUS41 KRNK 011530 AAA
TAFLWB
TAF AMD
KLWB 011530Z 0116/0212 20004KT P6SM SCT009 OVC013
      TEMPO 0116/0117 OVC008
     FM011900 21007KT P6SM VCSH BKN035
      TEMPO 0121/0124 3SM SHRA BR OVC015
     FM020100 00000KT P6SM BKN035
     FM020600 24005KT 4SM BR SCT005 BKN250
     FM020900 23003KT 3SM BR BKN005
      TEMPO 0209/0212 1/2SM FG VV001=

USA.gov is the U.S. government's official web portal to all federal, state and local government web resources and services.